Marcelino Escalada, Argentina
Current Conditions -  °F | °C
As of 8:00 AM on Thursday 27 Nov 2014 (Local Time) from SUSO Reporting Station
Clear Clear  
Wind Chill: 66°   Ceiling: Unl
Heat Index: 66°   Visibility: 6mi
Dew Point: 59°   Wind: 7mph
Humidity: 78%   Direction: 120°ESE
Pressure: 29.97"   Gusts: NA
Location:  30.58°S, 60.48°W
Report Text: SUSO 271100Z 12006KT CAVOK 19/15 Q1015
Loading
Personal Weather Stations






























Interactive Weather Map New forecast layout! Learn more

10-Day Weather Forecast

Advertisements
Track Severe Weather on mobile